createdAt,value
2022-09-26T00:08:13.744Z,9.09
2022-09-26T00:18:20.913Z,9.03
2022-09-26T00:28:28.943Z,9.01
2022-09-26T00:38:37.018Z,9.02
2022-09-26T00:48:47.139Z,9.10
2022-09-26T00:58:55.792Z,9.20
2022-09-26T01:09:06.873Z,9.32
2022-09-26T01:19:16.479Z,9.45
2022-09-26T01:29:57.941Z,9.47
2022-09-26T01:40:04.301Z,9.42
2022-09-26T01:50:16.451Z,9.40
2022-09-26T02:00:24.243Z,9.42
2022-09-26T02:10:34.493Z,9.56
2022-09-26T02:20:45.635Z,9.73
2022-09-26T02:30:55.378Z,9.71
2022-09-26T02:41:00.545Z,9.68
2022-09-26T02:51:16.227Z,9.63
2022-09-26T03:01:23.045Z,9.73
2022-09-26T03:11:31.583Z,9.83
2022-09-26T03:21:39.207Z,9.86
2022-09-26T03:31:46.511Z,9.90
2022-09-26T03:41:53.190Z,9.87
2022-09-26T03:52:00.292Z,9.75
2022-09-26T04:02:07.929Z,9.70
2022-09-26T04:12:15.341Z,9.58
2022-09-26T04:22:22.337Z,9.59
2022-09-26T04:32:29.977Z,9.64
2022-09-26T04:42:34.510Z,9.69
2022-09-26T04:52:41.507Z,9.74
2022-09-26T05:02:48.843Z,9.83
2022-09-26T05:12:59.546Z,9.84
2022-09-26T05:23:09.180Z,9.90
2022-09-26T05:33:16.470Z,10.04
2022-09-26T05:43:24.163Z,10.18
2022-09-26T05:53:31.358Z,10.30
2022-09-26T06:03:39.426Z,10.42
2022-09-26T06:13:47.162Z,10.56
2022-09-26T06:23:54.535Z,10.75
2022-09-26T06:34:02.025Z,11.10
2022-09-26T06:44:09.172Z,11.60
2022-09-26T06:54:16.310Z,11.91
2022-09-26T07:04:27.516Z,12.49
2022-09-26T07:14:34.620Z,13.49
2022-09-26T07:24:43.020Z,13.80
2022-09-26T07:34:51.212Z,13.74
2022-09-26T07:55:29.192Z,14.57
2022-09-26T08:05:36.517Z,15.25
2022-09-26T08:15:42.686Z,15.38
2022-09-26T08:25:49.883Z,15.24
2022-09-26T08:35:56.962Z,15.67
2022-09-26T08:46:20.082Z,15.74
2022-09-26T08:56:30.595Z,15.78
2022-09-26T09:06:39.183Z,15.44
2022-09-26T09:16:51.706Z,15.58
2022-09-26T09:37:40.481Z,16.18
2022-09-26T09:47:47.991Z,16.10
2022-09-26T09:58:07.409Z,16.18
2022-09-26T10:08:15.223Z,15.91
2022-09-26T10:18:25.852Z,16.45
2022-09-26T10:28:33.937Z,16.51
2022-09-26T10:38:50.471Z,16.83
2022-09-26T10:49:02.309Z,17.20
2022-09-26T10:59:14.205Z,17.11
2022-09-26T11:09:20.920Z,17.09
2022-09-26T11:19:36.421Z,17.04
2022-09-26T11:29:42.945Z,17.59
2022-09-26T11:39:57.895Z,17.93
2022-09-26T11:50:14.953Z,18.14
2022-09-26T12:00:27.573Z,17.90
2022-09-26T12:10:34.218Z,17.72
2022-09-26T12:20:38.987Z,17.61
2022-09-26T12:30:52.581Z,17.88
2022-09-26T12:41:12.271Z,18.06
2022-09-26T12:51:16.871Z,17.92
2022-09-26T13:01:34.475Z,17.77
2022-09-26T13:11:38.883Z,17.57
2022-09-26T13:21:47.963Z,17.25
2022-09-26T13:31:55.602Z,16.93
2022-09-26T13:42:05.555Z,16.63
2022-09-26T13:52:23.217Z,16.06
2022-09-26T14:02:32.145Z,15.65
2022-09-26T14:12:54.803Z,15.46
2022-09-26T14:23:03.598Z,15.07
2022-09-26T14:33:15.466Z,14.59
2022-09-26T14:43:25.484Z,14.35
2022-09-26T14:53:31.203Z,14.22
2022-09-26T15:03:39.217Z,14.35
2022-09-26T15:13:46.607Z,14.46
2022-09-26T15:23:57.011Z,14.36
2022-09-26T15:34:11.578Z,14.23
2022-09-26T15:44:23.829Z,14.08
2022-09-26T15:54:31.416Z,13.96
2022-09-26T16:04:55.395Z,13.90
2022-09-26T16:15:02.565Z,13.64
2022-09-26T16:25:26.743Z,13.50
2022-09-26T16:35:35.916Z,13.50
2022-09-26T16:45:47.350Z,13.45
2022-09-26T16:55:55.390Z,13.31
2022-09-26T17:06:02.760Z,13.25
2022-09-26T17:16:11.303Z,13.14
2022-09-26T17:26:18.309Z,13.07
2022-09-26T17:36:28.331Z,13.04
2022-09-26T17:46:35.308Z,12.78
2022-09-26T17:56:42.438Z,12.56
2022-09-26T18:06:48.522Z,12.29
2022-09-26T18:16:55.956Z,12.06
2022-09-26T18:27:07.377Z,11.88
2022-09-26T18:37:14.451Z,11.68
2022-09-26T18:47:22.111Z,11.60
2022-09-26T18:57:47.156Z,11.74
2022-09-26T19:07:54.454Z,11.61
2022-09-26T19:18:01.694Z,11.37
2022-09-26T19:28:10.523Z,11.25
2022-09-26T19:38:18.594Z,11.11
2022-09-26T19:48:25.850Z,10.92
2022-09-26T19:58:33.557Z,10.76
2022-09-26T20:08:40.903Z,10.49
2022-09-26T20:18:48.930Z,10.39
2022-09-26T20:28:56.061Z,10.25
2022-09-26T20:39:05.225Z,10.05
2022-09-26T20:49:20.781Z,9.92
2022-09-26T20:59:29.488Z,9.87
2022-09-26T21:09:36.653Z,9.83
2022-09-26T21:19:43.907Z,9.69
2022-09-26T21:29:51.386Z,9.63
2022-09-26T21:39:59.120Z,9.71
2022-09-26T21:50:05.935Z,9.69
2022-09-26T22:00:15.477Z,9.36
2022-09-26T22:10:21.305Z,9.27
2022-09-26T22:20:27.374Z,9.14
2022-09-26T22:30:33.462Z,9.00
2022-09-26T22:40:40.699Z,8.84
2022-09-26T22:50:48.298Z,8.68
2022-09-26T23:00:55.623Z,8.49
2022-09-26T23:11:03.877Z,8.46
2022-09-26T23:21:12.627Z,8.43
2022-09-26T23:31:20.260Z,8.38
2022-09-26T23:41:27.587Z,8.38
2022-09-26T23:51:34.649Z,8.20
